sensor_id;sensor_type;location;lat;lon;timestamp;pressure;altitude;pressure_sealevel;temperature;humidity
67373;BME280;54257;54.496;18.412;2022-12-20T00:01:27;99785.20;;;0.77;100.00
67373;BME280;54257;54.496;18.412;2022-12-20T00:03:56;99780.96;;;0.76;100.00
67373;BME280;54257;54.496;18.412;2022-12-20T00:06:25;99779.86;;;0.80;100.00
67373;BME280;54257;54.496;18.412;2022-12-20T00:08:58;99780.36;;;0.83;100.00
67373;BME280;54257;54.496;18.412;2022-12-20T00:11:26;99778.95;;;0.86;100.00
67373;BME280;54257;54.496;18.412;2022-12-20T00:13:54;99778.23;;;0.88;100.00
67373;BME280;54257;54.496;18.412;2022-12-20T00:16:23;99777.70;;;0.91;100.00
67373;BME280;54257;54.496;18.412;2022-12-20T00:18:53;99776.80;;;0.93;100.00
67373;BME280;54257;54.496;18.412;2022-12-20T00:21:21;99771.51;;;0.95;100.00
67373;BME280;54257;54.496;18.412;2022-12-20T00:23:50;99771.25;;;0.97;100.00
67373;BME280;54257;54.496;18.412;2022-12-20T00:26:20;99761.69;;;1.00;100.00
67373;BME280;54257;54.496;18.412;2022-12-20T00:28:47;99765.86;;;1.03;100.00
67373;BME280;54257;54.496;18.412;2022-12-20T00:31:17;99767.81;;;1.04;100.00
67373;BME280;54257;54.496;18.412;2022-12-20T00:33:50;99765.64;;;1.08;100.00
67373;BME280;54257;54.496;18.412;2022-12-20T00:36:18;99755.86;;;1.11;100.00
67373;BME280;54257;54.496;18.412;2022-12-20T00:38:51;99749.87;;;1.12;100.00
67373;BME280;54257;54.496;18.412;2022-12-20T00:41:21;99747.95;;;1.14;100.00
67373;BME280;54257;54.496;18.412;2022-12-20T00:43:49;99748.08;;;1.17;100.00
67373;BME280;54257;54.496;18.412;2022-12-20T00:46:17;99752.90;;;1.19;100.00
67373;BME280;54257;54.496;18.412;2022-12-20T00:48:45;99750.30;;;1.21;100.00
67373;BME280;54257;54.496;18.412;2022-12-20T00:51:16;99744.15;;;1.22;100.00
67373;BME280;54257;54.496;18.412;2022-12-20T00:53:44;99742.73;;;1.24;100.00
67373;BME280;54257;54.496;18.412;2022-12-20T00:56:11;99741.30;;;1.26;100.00
67373;BME280;54257;54.496;18.412;2022-12-20T00:58:40;99734.86;;;1.28;100.00
67373;BME280;54257;54.496;18.412;2022-12-20T01:01:23;99727.56;;;1.30;100.00
67373;BME280;54257;54.496;18.412;2022-12-20T01:03:51;99719.58;;;1.32;100.00
67373;BME280;54257;54.496;18.412;2022-12-20T01:06:21;99719.48;;;1.33;100.00
67373;BME280;54257;54.496;18.412;2022-12-20T01:08:50;99727.14;;;1.35;100.00
67373;BME280;54257;54.496;18.412;2022-12-20T01:11:20;99729.74;;;1.37;100.00
67373;BME280;54257;54.496;18.412;2022-12-20T01:13:50;99726.11;;;1.38;100.00
67373;BME280;54257;54.496;18.412;2022-12-20T01:16:22;99721.66;;;1.40;100.00
67373;BME280;54257;54.496;18.412;2022-12-20T01:18:49;99714.16;;;1.42;100.00
67373;BME280;54257;54.496;18.412;2022-12-20T01:21:18;99717.40;;;1.43;100.00
67373;BME280;54257;54.496;18.412;2022-12-20T01:23:47;99713.56;;;1.44;100.00
67373;BME280;54257;54.496;18.412;2022-12-20T01:26:18;99713.17;;;1.42;100.00
67373;BME280;54257;54.496;18.412;2022-12-20T01:28:47;99714.33;;;1.46;100.00
67373;BME280;54257;54.496;18.412;2022-12-20T01:31:16;99720.14;;;1.47;100.00
67373;BME280;54257;54.496;18.412;2022-12-20T01:33:45;99721.89;;;1.48;100.00
67373;BME280;54257;54.496;18.412;2022-12-20T01:36:16;99722.58;;;1.49;100.00
67373;BME280;54257;54.496;18.412;2022-12-20T01:38:47;99719.95;;;1.50;100.00
67373;BME280;54257;54.496;18.412;2022-12-20T01:41:16;99719.13;;;1.50;100.00
67373;BME280;54257;54.496;18.412;2022-12-20T01:46:15;99713.33;;;1.49;100.00
67373;BME280;54257;54.496;18.412;2022-12-20T01:48:48;99713.28;;;1.48;100.00
67373;BME280;54257;54.496;18.412;2022-12-20T01:51:22;99717.70;;;1.49;100.00
67373;BME280;54257;54.496;18.412;2022-12-20T01:53:55;99713.09;;;1.47;100.00
67373;BME280;54257;54.496;18.412;2022-12-20T01:56:24;99713.80;;;1.48;100.00
67373;BME280;54257;54.496;18.412;2022-12-20T01:58:52;99713.89;;;1.47;100.00
67373;BME280;54257;54.496;18.412;2022-12-20T02:01:23;99709.55;;;1.51;100.00
67373;BME280;54257;54.496;18.412;2022-12-20T02:03:53;99703.83;;;1.51;100.00
67373;BME280;54257;54.496;18.412;2022-12-20T02:06:24;99704.32;;;1.51;100.00
67373;BME280;54257;54.496;18.412;2022-12-20T02:08:57;99696.38;;;1.50;100.00
67373;BME280;54257;54.496;18.412;2022-12-20T02:17:30;99691.83;;;1.56;100.00
67373;BME280;54257;54.496;18.412;2022-12-20T02:25:44;99694.93;;;1.62;100.00
67373;BME280;54257;54.496;18.412;2022-12-20T02:30:53;99688.71;;;1.65;100.00
67373;BME280;54257;54.496;18.412;2022-12-20T02:33:24;99685.02;;;1.66;100.00
67373;BME280;54257;54.496;18.412;2022-12-20T02:35:52;99704.61;;;1.67;100.00
67373;BME280;54257;54.496;18.412;2022-12-20T02:38:31;99713.40;;;1.68;100.00
67373;BME280;54257;54.496;18.412;2022-12-20T02:41:18;99710.10;;;1.70;100.00
67373;BME280;54257;54.496;18.412;2022-12-20T02:43:49;99709.48;;;1.70;100.00
67373;BME280;54257;54.496;18.412;2022-12-20T02:46:38;99715.73;;;1.71;100.00
67373;BME280;54257;54.496;18.412;2022-12-20T02:49:13;99710.11;;;1.73;100.00
67373;BME280;54257;54.496;18.412;2022-12-20T02:51:43;99709.83;;;1.74;100.00
67373;BME280;54257;54.496;18.412;2022-12-20T02:54:12;99699.95;;;1.75;100.00
67373;BME280;54257;54.496;18.412;2022-12-20T03:02:35;99696.70;;;1.81;100.00
67373;BME280;54257;54.496;18.412;2022-12-20T03:05:24;99691.10;;;1.84;100.00
67373;BME280;54257;54.496;18.412;2022-12-20T03:07:52;99690.54;;;1.87;100.00
67373;BME280;54257;54.496;18.412;2022-12-20T03:10:20;99689.27;;;1.88;100.00
67373;BME280;54257;54.496;18.412;2022-12-20T03:12:47;99682.11;;;1.90;100.00
67373;BME280;54257;54.496;18.412;2022-12-20T03:15:15;99690.94;;;1.91;100.00
67373;BME280;54257;54.496;18.412;2022-12-20T03:17:42;99700.41;;;1.92;100.00
67373;BME280;54257;54.496;18.412;2022-12-20T03:20:09;99705.58;;;1.95;100.00
67373;BME280;54257;54.496;18.412;2022-12-20T03:22:37;99704.11;;;1.96;100.00
67373;BME280;54257;54.496;18.412;2022-12-20T03:25:05;99693.73;;;1.97;100.00
67373;BME280;54257;54.496;18.412;2022-12-20T03:27:33;99689.58;;;1.98;100.00
67373;BME280;54257;54.496;18.412;2022-12-20T03:30:00;99688.42;;;1.99;100.00
67373;BME280;54257;54.496;18.412;2022-12-20T03:32:28;99685.63;;;2.01;100.00
67373;BME280;54257;54.496;18.412;2022-12-20T03:34:55;99689.36;;;2.02;100.00
67373;BME280;54257;54.496;18.412;2022-12-20T03:37:22;99691.90;;;2.02;100.00
67373;BME280;54257;54.496;18.412;2022-12-20T03:39:49;99690.44;;;2.03;100.00
67373;BME280;54257;54.496;18.412;2022-12-20T03:42:17;99688.83;;;2.04;100.00
67373;BME280;54257;54.496;18.412;2022-12-20T03:44:43;99687.86;;;2.05;100.00
67373;BME280;54257;54.496;18.412;2022-12-20T03:47:11;99683.84;;;2.05;100.00
67373;BME280;54257;54.496;18.412;2022-12-20T03:49:38;99689.02;;;2.04;100.00
67373;BME280;54257;54.496;18.412;2022-12-20T03:52:05;99689.52;;;2.04;100.00
67373;BME280;54257;54.496;18.412;2022-12-20T03:54:32;99682.61;;;2.04;100.00
67373;BME280;54257;54.496;18.412;2022-12-20T03:56:59;99686.98;;;2.04;100.00
67373;BME280;54257;54.496;18.412;2022-12-20T03:59:26;99683.94;;;2.04;100.00
67373;BME280;54257;54.496;18.412;2022-12-20T04:01:53;99687.02;;;2.05;100.00
67373;BME280;54257;54.496;18.412;2022-12-20T04:04:20;99683.66;;;2.05;100.00
67373;BME280;54257;54.496;18.412;2022-12-20T04:06:47;99678.14;;;2.06;100.00
67373;BME280;54257;54.496;18.412;2022-12-20T04:09:14;99674.31;;;2.07;100.00
67373;BME280;54257;54.496;18.412;2022-12-20T04:11:41;99673.02;;;2.09;100.00
67373;BME280;54257;54.496;18.412;2022-12-20T04:14:08;99675.62;;;2.10;100.00
67373;BME280;54257;54.496;18.412;2022-12-20T04:16:36;99674.35;;;2.12;100.00
67373;BME280;54257;54.496;18.412;2022-12-20T04:19:03;99674.23;;;2.12;100.00
67373;BME280;54257;54.496;18.412;2022-12-20T04:21:34;99674.44;;;2.13;100.00
67373;BME280;54257;54.496;18.412;2022-12-20T04:24:02;99669.58;;;2.14;100.00
67373;BME280;54257;54.496;18.412;2022-12-20T04:26:30;99670.94;;;2.14;100.00
67373;BME280;54257;54.496;18.412;2022-12-20T04:28:57;99676.19;;;2.15;100.00
67373;BME280;54257;54.496;18.412;2022-12-20T04:31:24;99679.86;;;2.14;100.00
67373;BME280;54257;54.496;18.412;2022-12-20T04:33:52;99682.55;;;2.14;100.00
67373;BME280;54257;54.496;18.412;2022-12-20T04:36:19;99676.60;;;2.13;100.00
67373;BME280;54257;54.496;18.412;2022-12-20T04:38:47;99673.86;;;2.12;100.00
67373;BME280;54257;54.496;18.412;2022-12-20T04:41:14;99673.38;;;2.12;100.00
67373;BME280;54257;54.496;18.412;2022-12-20T04:43:49;99671.86;;;2.12;100.00
67373;BME280;54257;54.496;18.412;2022-12-20T04:46:18;99667.16;;;2.12;100.00
67373;BME280;54257;54.496;18.412;2022-12-20T04:48:45;99665.14;;;2.13;100.00
67373;BME280;54257;54.496;18.412;2022-12-20T04:51:14;99667.73;;;2.14;100.00
67373;BME280;54257;54.496;18.412;2022-12-20T04:53:41;99665.05;;;2.14;100.00
67373;BME280;54257;54.496;18.412;2022-12-20T04:56:23;99656.77;;;2.14;100.00
67373;BME280;54257;54.496;18.412;2022-12-20T04:58:53;99656.80;;;2.14;100.00
67373;BME280;54257;54.496;18.412;2022-12-20T05:01:21;99661.66;;;2.14;100.00
67373;BME280;54257;54.496;18.412;2022-12-20T05:03:48;99660.52;;;2.14;100.00
67373;BME280;54257;54.496;18.412;2022-12-20T05:06:15;99658.73;;;2.17;100.00
67373;BME280;54257;54.496;18.412;2022-12-20T05:08:43;99654.58;;;2.18;100.00
67373;BME280;54257;54.496;18.412;2022-12-20T05:11:13;99658.17;;;2.19;100.00
67373;BME280;54257;54.496;18.412;2022-12-20T05:13:40;99651.14;;;2.20;100.00
67373;BME280;54257;54.496;18.412;2022-12-20T05:16:07;99650.05;;;2.22;100.00
67373;BME280;54257;54.496;18.412;2022-12-20T05:18:35;99656.84;;;2.23;100.00
67373;BME280;54257;54.496;18.412;2022-12-20T05:21:02;99656.25;;;2.25;100.00
67373;BME280;54257;54.496;18.412;2022-12-20T05:23:48;99660.81;;;2.25;100.00
67373;BME280;54257;54.496;18.412;2022-12-20T05:26:36;99664.90;;;2.26;100.00
67373;BME280;54257;54.496;18.412;2022-12-20T05:29:04;99668.22;;;2.29;100.00
67373;BME280;54257;54.496;18.412;2022-12-20T05:31:32;99661.88;;;2.30;100.00
67373;BME280;54257;54.496;18.412;2022-12-20T05:33:59;99661.08;;;2.31;100.00
67373;BME280;54257;54.496;18.412;2022-12-20T05:36:26;99667.39;;;2.33;100.00
67373;BME280;54257;54.496;18.412;2022-12-20T05:38:53;99672.83;;;2.34;100.00
67373;BME280;54257;54.496;18.412;2022-12-20T05:41:20;99676.49;;;2.37;100.00
67373;BME280;54257;54.496;18.412;2022-12-20T05:43:47;99675.80;;;2.36;100.00
67373;BME280;54257;54.496;18.412;2022-12-20T05:46:15;99669.39;;;2.36;100.00
67373;BME280;54257;54.496;18.412;2022-12-20T05:48:44;99673.73;;;2.39;100.00
67373;BME280;54257;54.496;18.412;2022-12-20T05:51:11;99678.51;;;2.40;100.00
67373;BME280;54257;54.496;18.412;2022-12-20T05:53:38;99679.29;;;2.43;100.00
67373;BME280;54257;54.496;18.412;2022-12-20T05:56:05;99684.30;;;2.42;100.00
67373;BME280;54257;54.496;18.412;2022-12-20T05:58:32;99686.65;;;2.41;100.00
67373;BME280;54257;54.496;18.412;2022-12-20T06:01:05;99687.70;;;2.42;100.00
67373;BME280;54257;54.496;18.412;2022-12-20T06:03:32;99685.73;;;2.44;100.00
67373;BME280;54257;54.496;18.412;2022-12-20T06:06:00;99689.93;;;2.43;100.00
67373;BME280;54257;54.496;18.412;2022-12-20T06:08:27;99689.23;;;2.43;100.00
67373;BME280;54257;54.496;18.412;2022-12-20T06:10:54;99691.56;;;2.42;100.00
67373;BME280;54257;54.496;18.412;2022-12-20T06:13:21;99693.05;;;2.42;100.00
67373;BME280;54257;54.496;18.412;2022-12-20T06:15:48;99689.48;;;2.41;100.00
67373;BME280;54257;54.496;18.412;2022-12-20T06:18:16;99689.66;;;2.41;100.00
67373;BME280;54257;54.496;18.412;2022-12-20T06:20:50;99681.33;;;2.39;100.00
67373;BME280;54257;54.496;18.412;2022-12-20T06:23:17;99678.20;;;2.37;100.00
67373;BME280;54257;54.496;18.412;2022-12-20T06:25:45;99679.62;;;2.35;100.00
67373;BME280;54257;54.496;18.412;2022-12-20T06:28:12;99678.67;;;2.33;100.00
67373;BME280;54257;54.496;18.412;2022-12-20T06:30:42;99675.64;;;2.33;100.00
67373;BME280;54257;54.496;18.412;2022-12-20T06:33:09;99676.50;;;2.33;100.00
67373;BME280;54257;54.496;18.412;2022-12-20T06:35:36;99674.92;;;2.32;100.00
67373;BME280;54257;54.496;18.412;2022-12-20T06:38:03;99672.74;;;2.32;100.00
67373;BME280;54257;54.496;18.412;2022-12-20T06:40:30;99673.73;;;2.32;100.00
67373;BME280;54257;54.496;18.412;2022-12-20T06:42:58;99667.16;;;2.32;100.00
67373;BME280;54257;54.496;18.412;2022-12-20T06:45:25;99671.17;;;2.31;100.00
67373;BME280;54257;54.496;18.412;2022-12-20T06:47:52;99667.39;;;2.29;100.00
67373;BME280;54257;54.496;18.412;2022-12-20T06:50:19;99665.42;;;2.27;100.00
67373;BME280;54257;54.496;18.412;2022-12-20T06:52:46;99667.05;;;2.25;100.00
67373;BME280;54257;54.496;18.412;2022-12-20T06:55:13;99673.75;;;2.24;100.00
67373;BME280;54257;54.496;18.412;2022-12-20T06:57:40;99671.66;;;2.23;100.00
67373;BME280;54257;54.496;18.412;2022-12-20T07:00:08;99672.58;;;2.21;100.00
67373;BME280;54257;54.496;18.412;2022-12-20T07:02:38;99671.45;;;2.18;100.00
67373;BME280;54257;54.496;18.412;2022-12-20T07:05:06;99672.44;;;2.17;100.00
67373;BME280;54257;54.496;18.412;2022-12-20T07:07:38;99672.11;;;2.18;100.00
67373;BME280;54257;54.496;18.412;2022-12-20T07:10:06;99671.02;;;2.16;100.00
67373;BME280;54257;54.496;18.412;2022-12-20T07:12:33;99669.45;;;2.15;100.00
67373;BME280;54257;54.496;18.412;2022-12-20T07:15:00;99668.91;;;2.14;100.00
67373;BME280;54257;54.496;18.412;2022-12-20T07:17:27;99678.45;;;2.12;100.00
67373;BME280;54257;54.496;18.412;2022-12-20T07:19:54;99684.84;;;2.13;100.00
67373;BME280;54257;54.496;18.412;2022-12-20T07:22:21;99682.45;;;2.12;100.00
67373;BME280;54257;54.496;18.412;2022-12-20T07:24:48;99683.70;;;2.13;100.00
67373;BME280;54257;54.496;18.412;2022-12-20T07:27:16;99687.63;;;2.15;100.00
67373;BME280;54257;54.496;18.412;2022-12-20T07:29:43;99691.91;;;2.16;100.00
67373;BME280;54257;54.496;18.412;2022-12-20T07:32:11;99694.45;;;2.16;100.00
67373;BME280;54257;54.496;18.412;2022-12-20T07:34:40;99696.81;;;2.17;100.00
67373;BME280;54257;54.496;18.412;2022-12-20T07:37:07;99702.23;;;2.17;100.00
67373;BME280;54257;54.496;18.412;2022-12-20T07:39:34;99702.02;;;2.19;100.00
67373;BME280;54257;54.496;18.412;2022-12-20T07:42:01;99704.41;;;2.20;100.00
67373;BME280;54257;54.496;18.412;2022-12-20T07:44:28;99705.62;;;2.21;100.00
67373;BME280;54257;54.496;18.412;2022-12-20T07:46:56;99699.08;;;2.22;100.00
67373;BME280;54257;54.496;18.412;2022-12-20T07:49:23;99696.05;;;2.22;100.00
67373;BME280;54257;54.496;18.412;2022-12-20T07:51:54;99696.25;;;2.23;100.00
67373;BME280;54257;54.496;18.412;2022-12-20T07:54:25;99698.95;;;2.22;100.00
67373;BME280;54257;54.496;18.412;2022-12-20T07:56:58;99701.90;;;2.21;100.00
67373;BME280;54257;54.496;18.412;2022-12-20T07:59:37;99705.60;;;2.20;100.00
67373;BME280;54257;54.496;18.412;2022-12-20T08:02:12;99709.15;;;2.21;100.00
67373;BME280;54257;54.496;18.412;2022-12-20T08:04:41;99707.48;;;2.21;100.00
67373;BME280;54257;54.496;18.412;2022-12-20T08:07:08;99699.25;;;2.22;100.00
67373;BME280;54257;54.496;18.412;2022-12-20T08:09:39;99700.61;;;2.22;100.00
67373;BME280;54257;54.496;18.412;2022-12-20T08:12:11;99695.60;;;2.23;100.00
67373;BME280;54257;54.496;18.412;2022-12-20T08:14:40;99696.11;;;2.23;100.00
67373;BME280;54257;54.496;18.412;2022-12-20T08:17:07;99689.95;;;2.25;100.00
67373;BME280;54257;54.496;18.412;2022-12-20T08:19:35;99689.35;;;2.27;100.00
67373;BME280;54257;54.496;18.412;2022-12-20T08:22:02;99692.11;;;2.28;100.00
67373;BME280;54257;54.496;18.412;2022-12-20T08:24:29;99695.04;;;2.30;100.00
67373;BME280;54257;54.496;18.412;2022-12-20T08:26:57;99702.20;;;2.31;100.00
67373;BME280;54257;54.496;18.412;2022-12-20T08:29:24;99699.12;;;2.34;100.00
67373;BME280;54257;54.496;18.412;2022-12-20T08:31:53;99702.94;;;2.36;100.00
67373;BME280;54257;54.496;18.412;2022-12-20T08:34:20;99704.83;;;2.37;100.00
67373;BME280;54257;54.496;18.412;2022-12-20T08:36:47;99703.02;;;2.38;100.00
67373;BME280;54257;54.496;18.412;2022-12-20T08:39:14;99703.40;;;2.39;100.00
67373;BME280;54257;54.496;18.412;2022-12-20T08:41:41;99693.16;;;2.40;100.00
67373;BME280;54257;54.496;18.412;2022-12-20T08:44:08;99691.81;;;2.40;100.00
67373;BME280;54257;54.496;18.412;2022-12-20T08:46:36;99689.09;;;2.39;100.00
67373;BME280;54257;54.496;18.412;2022-12-20T08:49:04;99681.34;;;2.40;100.00
67373;BME280;54257;54.496;18.412;2022-12-20T08:51:31;99682.86;;;2.40;100.00
67373;BME280;54257;54.496;18.412;2022-12-20T08:53:58;99681.73;;;2.41;100.00
67373;BME280;54257;54.496;18.412;2022-12-20T08:56:25;99684.42;;;2.41;100.00
67373;BME280;54257;54.496;18.412;2022-12-20T08:58:52;99681.58;;;2.41;100.00
67373;BME280;54257;54.496;18.412;2022-12-20T09:01:20;99687.49;;;2.42;100.00
67373;BME280;54257;54.496;18.412;2022-12-20T09:03:48;99691.43;;;2.43;100.00
67373;BME280;54257;54.496;18.412;2022-12-20T09:06:20;99691.45;;;2.44;100.00
67373;BME280;54257;54.496;18.412;2022-12-20T09:08:48;99686.95;;;2.44;100.00
67373;BME280;54257;54.496;18.412;2022-12-20T09:11:21;99693.23;;;2.45;100.00
67373;BME280;54257;54.496;18.412;2022-12-20T09:13:50;99701.48;;;2.45;100.00
67373;BME280;54257;54.496;18.412;2022-12-20T09:16:20;99699.65;;;2.45;100.00
67373;BME280;54257;54.496;18.412;2022-12-20T09:18:53;99697.66;;;2.47;100.00
67373;BME280;54257;54.496;18.412;2022-12-20T09:21:21;99699.70;;;2.47;100.00
67373;BME280;54257;54.496;18.412;2022-12-20T09:23:53;99702.92;;;2.47;100.00
67373;BME280;54257;54.496;18.412;2022-12-20T09:26:22;99702.10;;;2.48;100.00
67373;BME280;54257;54.496;18.412;2022-12-20T09:28:50;99705.16;;;2.49;100.00
67373;BME280;54257;54.496;18.412;2022-12-20T09:31:20;99703.11;;;2.48;100.00
67373;BME280;54257;54.496;18.412;2022-12-20T09:33:48;99700.95;;;2.48;100.00
67373;BME280;54257;54.496;18.412;2022-12-20T09:36:18;99696.08;;;2.49;100.00
67373;BME280;54257;54.496;18.412;2022-12-20T09:38:47;99693.38;;;2.49;100.00
67373;BME280;54257;54.496;18.412;2022-12-20T09:44:24;99687.02;;;2.50;100.00
67373;BME280;54257;54.496;18.412;2022-12-20T09:47:16;99695.13;;;2.50;100.00
67373;BME280;54257;54.496;18.412;2022-12-20T09:49:48;99693.41;;;2.49;100.00
67373;BME280;54257;54.496;18.412;2022-12-20T09:55:30;99686.77;;;2.48;100.00
67373;BME280;54257;54.496;18.412;2022-12-20T10:01:26;99696.06;;;2.45;100.00
67373;BME280;54257;54.496;18.412;2022-12-20T10:03:56;99697.99;;;2.43;100.00
67373;BME280;54257;54.496;18.412;2022-12-20T10:06:42;99695.42;;;2.42;100.00
67373;BME280;54257;54.496;18.412;2022-12-20T10:12:13;99694.75;;;2.42;100.00
67373;BME280;54257;54.496;18.412;2022-12-20T10:18:08;99696.23;;;2.41;100.00
67373;BME280;54257;54.496;18.412;2022-12-20T10:23:59;99691.98;;;2.40;100.00
67373;BME280;54257;54.496;18.412;2022-12-20T10:26:28;99685.44;;;2.41;100.00
67373;BME280;54257;54.496;18.412;2022-12-20T10:28:55;99687.21;;;2.43;100.00
67373;BME280;54257;54.496;18.412;2022-12-20T10:31:23;99687.33;;;2.45;100.00
67373;BME280;54257;54.496;18.412;2022-12-20T10:33:51;99671.91;;;2.47;100.00
67373;BME280;54257;54.496;18.412;2022-12-20T10:36:22;99667.13;;;2.50;100.00
67373;BME280;54257;54.496;18.412;2022-12-20T10:38:54;99664.05;;;2.53;100.00
67373;BME280;54257;54.496;18.412;2022-12-20T10:41:25;99654.26;;;2.56;100.00
67373;BME280;54257;54.496;18.412;2022-12-20T10:44:14;99653.18;;;2.59;100.00
67373;BME280;54257;54.496;18.412;2022-12-20T10:46:59;99660.26;;;2.63;100.00
67373;BME280;54257;54.496;18.412;2022-12-20T10:49:38;99657.00;;;2.65;100.00
67373;BME280;54257;54.496;18.412;2022-12-20T10:54:37;99656.43;;;2.71;100.00
67373;BME280;54257;54.496;18.412;2022-12-20T10:57:22;99652.73;;;2.76;100.00
67373;BME280;54257;54.496;18.412;2022-12-20T10:59:57;99644.64;;;2.79;100.00
67373;BME280;54257;54.496;18.412;2022-12-20T11:02:29;99645.27;;;2.83;100.00
67373;BME280;54257;54.496;18.412;2022-12-20T11:07:53;99644.85;;;2.89;100.00
67373;BME280;54257;54.496;18.412;2022-12-20T11:10:24;99649.00;;;2.92;100.00
67373;BME280;54257;54.496;18.412;2022-12-20T11:12:56;99644.39;;;2.94;100.00
67373;BME280;54257;54.496;18.412;2022-12-20T11:15:34;99641.05;;;2.95;100.00
67373;BME280;54257;54.496;18.412;2022-12-20T11:24:20;99647.52;;;3.00;100.00
67373;BME280;54257;54.496;18.412;2022-12-20T11:30:22;99647.34;;;3.00;100.00
67373;BME280;54257;54.496;18.412;2022-12-20T11:38:31;99638.39;;;3.00;100.00
67373;BME280;54257;54.496;18.412;2022-12-20T11:41:43;99638.70;;;3.03;100.00
67373;BME280;54257;54.496;18.412;2022-12-20T11:47:43;99641.91;;;3.03;100.00
67373;BME280;54257;54.496;18.412;2022-12-20T11:50:33;99642.27;;;3.03;100.00
67373;BME280;54257;54.496;18.412;2022-12-20T11:56:02;99643.41;;;3.02;100.00
67373;BME280;54257;54.496;18.412;2022-12-20T11:58:56;99642.36;;;3.02;100.00
67373;BME280;54257;54.496;18.412;2022-12-20T12:01:32;99641.44;;;3.00;100.00
67373;BME280;54257;54.496;18.412;2022-12-20T12:04:19;99636.70;;;3.00;100.00
67373;BME280;54257;54.496;18.412;2022-12-20T12:07:12;99637.00;;;2.99;100.00
67373;BME280;54257;54.496;18.412;2022-12-20T12:10:00;99627.81;;;2.97;100.00
67373;BME280;54257;54.496;18.412;2022-12-20T12:12:36;99621.70;;;2.96;100.00
67373;BME280;54257;54.496;18.412;2022-12-20T12:17:55;99622.20;;;2.92;100.00
67373;BME280;54257;54.496;18.412;2022-12-20T12:20:39;99619.11;;;2.91;100.00
67373;BME280;54257;54.496;18.412;2022-12-20T12:26:23;99614.64;;;2.88;100.00
67373;BME280;54257;54.496;18.412;2022-12-20T12:28:59;99620.54;;;2.88;100.00
67373;BME280;54257;54.496;18.412;2022-12-20T12:31:48;99622.77;;;2.89;100.00
67373;BME280;54257;54.496;18.412;2022-12-20T12:50:57;99597.64;;;2.98;100.00
67373;BME280;54257;54.496;18.412;2022-12-20T12:53:49;99601.52;;;3.01;100.00
67373;BME280;54257;54.496;18.412;2022-12-20T13:07:24;99612.18;;;3.15;100.00
67373;BME280;54257;54.496;18.412;2022-12-20T13:09:53;99609.69;;;3.16;100.00
67373;BME280;54257;54.496;18.412;2022-12-20T13:20:29;99617.61;;;3.20;100.00
67373;BME280;54257;54.496;18.412;2022-12-20T13:25:46;99623.55;;;3.20;100.00
67373;BME280;54257;54.496;18.412;2022-12-20T13:30:47;99622.16;;;3.20;100.00
67373;BME280;54257;54.496;18.412;2022-12-20T13:36:28;99629.20;;;3.18;100.00
67373;BME280;54257;54.496;18.412;2022-12-20T13:38:54;99619.42;;;3.19;100.00
67373;BME280;54257;54.496;18.412;2022-12-20T13:43:51;99625.69;;;3.19;100.00
67373;BME280;54257;54.496;18.412;2022-12-20T13:46:27;99624.16;;;3.19;100.00
67373;BME280;54257;54.496;18.412;2022-12-20T13:49:02;99617.79;;;3.20;100.00
67373;BME280;54257;54.496;18.412;2022-12-20T13:51:31;99616.27;;;3.20;100.00
67373;BME280;54257;54.496;18.412;2022-12-20T13:54:11;99607.83;;;3.20;100.00
67373;BME280;54257;54.496;18.412;2022-12-20T13:56:49;99604.33;;;3.21;100.00
67373;BME280;54257;54.496;18.412;2022-12-20T13:59:32;99608.24;;;3.22;100.00
67373;BME280;54257;54.496;18.412;2022-12-20T14:02:33;99609.09;;;3.22;100.00
67373;BME280;54257;54.496;18.412;2022-12-20T14:05:25;99603.88;;;3.23;100.00
67373;BME280;54257;54.496;18.412;2022-12-20T14:08:08;99601.36;;;3.23;100.00
67373;BME280;54257;54.496;18.412;2022-12-20T14:10:43;99596.63;;;3.23;100.00
67373;BME280;54257;54.496;18.412;2022-12-20T14:13:23;99603.38;;;3.23;100.00
67373;BME280;54257;54.496;18.412;2022-12-20T14:15:52;99595.94;;;3.22;100.00
67373;BME280;54257;54.496;18.412;2022-12-20T14:18:24;99585.98;;;3.22;100.00
67373;BME280;54257;54.496;18.412;2022-12-20T14:21:00;99581.76;;;3.22;100.00
67373;BME280;54257;54.496;18.412;2022-12-20T14:23:42;99580.24;;;3.22;100.00
67373;BME280;54257;54.496;18.412;2022-12-20T14:26:16;99580.25;;;3.22;100.00
67373;BME280;54257;54.496;18.412;2022-12-20T14:28:46;99585.00;;;3.23;100.00
67373;BME280;54257;54.496;18.412;2022-12-20T14:33:49;99571.77;;;3.21;100.00
67373;BME280;54257;54.496;18.412;2022-12-20T14:36:20;99571.55;;;3.20;100.00
67373;BME280;54257;54.496;18.412;2022-12-20T14:38:50;99572.23;;;3.20;100.00
67373;BME280;54257;54.496;18.412;2022-12-20T14:41:34;99558.88;;;3.19;100.00
67373;BME280;54257;54.496;18.412;2022-12-20T14:46:34;99533.71;;;3.19;100.00
67373;BME280;54257;54.496;18.412;2022-12-20T14:49:16;99532.55;;;3.19;100.00
67373;BME280;54257;54.496;18.412;2022-12-20T14:51:50;99533.59;;;3.20;100.00
67373;BME280;54257;54.496;18.412;2022-12-20T14:54:27;99529.75;;;3.21;100.00
67373;BME280;54257;54.496;18.412;2022-12-20T14:56:55;99525.38;;;3.22;100.00
67373;BME280;54257;54.496;18.412;2022-12-20T14:59:27;99524.22;;;3.22;100.00
67373;BME280;54257;54.496;18.412;2022-12-20T15:01:55;99531.95;;;3.22;100.00
67373;BME280;54257;54.496;18.412;2022-12-20T15:04:34;99538.88;;;3.21;100.00
67373;BME280;54257;54.496;18.412;2022-12-20T15:07:01;99539.88;;;3.21;100.00
67373;BME280;54257;54.496;18.412;2022-12-20T15:09:32;99552.88;;;3.21;100.00
67373;BME280;54257;54.496;18.412;2022-12-20T15:12:02;99556.59;;;3.21;100.00
67373;BME280;54257;54.496;18.412;2022-12-20T15:14:34;99560.29;;;3.21;100.00
67373;BME280;54257;54.496;18.412;2022-12-20T15:17:11;99560.86;;;3.23;100.00